»·PEaware :: N364KQ KVCV-KAJO

N364KQ :: KVCV-KAJO

FLIGHT INFORMATION

Flight Status: Arrived
Operator: Privately registered:
United States
More flights under this callsign
Pilot: Brian K. (18535)
Aircraft: Diamond DA-62
(DA62)
More flights by this aircraft type
Origin: KVCV Socal Logistics
United States
Destination: KAJO Corona Mun
United States
More flights between these airports :: More routes between these airports
Route: + V442 PDZ
File this flight plan on PilotEdge
Remarks: REQ GPS-A APPROACH
Altitude:
(Current/Filed)
8,000ft
Speed:
(Current/Filed)
160kts
Departed: 03-Jul-18 08:53 AM
Arrived: 03-Jul-18 09:35 AM
Distance/Time
Traveled:
43nm/0:42
Distance/Time
To Go:
Arrived

Flight Plot

Page will automatically refresh every two minutes.

Flight plan parsing failed; only flown route is shown


Map Options




Map Legend


Flown Route
Filed Route
Departure Airport
Arrival Airport
Navaid (VOR, NDB)
Fix

Horizontal Profiles

Position Reports

Time Latitude Longitude Heading Altitude Ground
Speed
03-Jul-18 08:33 34.588333 -117.376341 313 2876ft 0kts
03-Jul-18 08:34 34.588333 -117.376341 313 2876ft 0kts
03-Jul-18 08:35 34.588333 -117.376341 313 2876ft 0kts
03-Jul-18 08:36 34.588333 -117.376341 313 2876ft 0kts
03-Jul-18 08:37 34.588333 -117.376341 313 2876ft 0kts
03-Jul-18 08:38 34.588333 -117.376341 313 2876ft 0kts
03-Jul-18 08:39 34.588333 -117.376341 313 2876ft 0kts
03-Jul-18 08:40 34.588333 -117.376341 313 2876ft 0kts
03-Jul-18 08:41 34.588333 -117.376341 313 2876ft 0kts
03-Jul-18 08:42 34.588333 -117.376341 313 2876ft 0kts
03-Jul-18 08:43 34.588333 -117.376341 313 2876ft 0kts
03-Jul-18 08:44 34.588333 -117.376341 313 2876ft 0kts
03-Jul-18 08:45 34.588333 -117.376341 313 2876ft 0kts
03-Jul-18 08:46 34.588382 -117.376399 321 2876ft 5kts
03-Jul-18 08:47 34.591045 -117.374984 43 2869ft 11kts
03-Jul-18 08:48 34.593205 -117.372288 68 2864ft 14kts
03-Jul-18 08:49 34.593301 -117.368321 89 2862ft 9kts
03-Jul-18 08:50 34.596898 -117.367133 11 2849ft 18kts
03-Jul-18 08:51 34.599178 -117.366606 8 2849ft 0kts
03-Jul-18 08:52 34.599193 -117.366603 8 2849ft 1kts
03-Jul-18 08:53 34.597857 -117.369636 224 2852ft 78kts
03-Jul-18 08:54 34.581867 -117.399015 269 3813ft 123kts
03-Jul-18 08:55 34.584006 -117.439971 271 4790ft 126kts
03-Jul-18 08:56 34.586279 -117.480507 271 5666ft 129kts
03-Jul-18 08:57 34.588442 -117.520023 271 6479ft 131kts
03-Jul-18 08:58 34.606784 -117.547580 20 7322ft 139kts
03-Jul-18 08:59 34.615861 -117.518951 91 7958ft 137kts
03-Jul-18 09:00 34.615802 -117.474693 91 8814ft 138kts
03-Jul-18 09:01 34.615443 -117.430005 91 9668ft 139kts
03-Jul-18 09:02 34.599480 -117.385907 121 10005ft 165kts
03-Jul-18 09:03 34.577581 -117.339595 121 10000ft 174kts
03-Jul-18 09:04 34.562640 -117.285229 106 9999ft 176kts
03-Jul-18 09:05 34.541817 -117.233242 125 9991ft 175kts
03-Jul-18 09:06 34.518491 -117.182443 120 10006ft 175kts
03-Jul-18 09:07 34.499050 -117.130288 118 10011ft 177kts
03-Jul-18 09:08 34.464079 -117.124500 240 9986ft 165kts
03-Jul-18 09:09 34.444745 -117.166191 242 9984ft 162kts
03-Jul-18 09:10 34.431802 -117.194361 242 9983ft 161kts
03-Jul-18 09:11 34.401999 -117.233288 216 9856ft 170kts
03-Jul-18 09:12 34.361561 -117.260330 208 9375ft 169kts
03-Jul-18 09:13 34.324500 -117.283046 208 8922ft 165kts
03-Jul-18 09:14 34.291479 -117.303217 208 8517ft 164kts
03-Jul-18 09:15 34.258474 -117.323355 207 8111ft 163kts
03-Jul-18 09:16 34.232582 -117.339120 207 7996ft 153kts
03-Jul-18 09:17 34.204786 -117.356043 207 8000ft 148kts
03-Jul-18 09:18 34.177595 -117.372595 207 8000ft 152kts
03-Jul-18 09:19 34.150812 -117.388883 207 8000ft 152kts
03-Jul-18 09:20 34.123661 -117.405390 207 7809ft 158kts
03-Jul-18 09:21 34.095736 -117.422351 207 7296ft 153kts
03-Jul-18 09:22 34.069282 -117.438406 207 6804ft 151kts
03-Jul-18 09:24 34.043890 -117.453803 207 6329ft 150kts
03-Jul-18 09:25 34.021816 -117.467180 207 5891ft 150kts
03-Jul-18 09:26 34.000477 -117.480104 207 5427ft 148kts
03-Jul-18 09:27 33.974992 -117.495530 207 4870ft 147kts
03-Jul-18 09:28 33.948083 -117.511807 207 4281ft 146kts
03-Jul-18 09:29 33.923537 -117.526810 209 3929ft 127kts
03-Jul-18 09:30 33.910512 -117.550329 253 3332ft 114kts
03-Jul-18 09:31 33.903933 -117.574752 254 2534ft 95kts
03-Jul-18 09:32 33.897496 -117.596594 248 1781ft 102kts
03-Jul-18 09:33 33.887386 -117.618846 139 1395ft 91kts
03-Jul-18 09:34 33.886656 -117.592836 79 1373ft 85kts
03-Jul-18 09:35 33.897851 -117.591362 268 881ft 91kts
03-Jul-18 09:36 33.897376 -117.605752 178 537ft 0kts
03-Jul-18 09:37 33.897200 -117.606069 269 537ft 10kts
03-Jul-18 09:38 33.896886 -117.606909 183 537ft 0kts

Navigation Log

Ident Type
Flight plan parsing failed, navigation log unavailable